Thunder radar more information blitzortung!


Löydät sääaseman tiedot myös:

European Weather Network

Finland Weather Exchange

Weather Underground

AWEKAS



Weather Underground säähistoriasivu

Päivittäin yhteenveto Tou 18, 2017 Yksiköt:  Englantilaiset    Metriset   Molemmat
« Edellinen Päivä
Seuraava Päivä »
Päivittäin Viikoittain Kuukausittain Vuosittain Mukautettu
  Korkea: Matala: Keskiarvo:
Lämpötila: TemperatureC °F 6.2 °F 10.4 °F
Kastepiste: DewpointC °F 5.5 °F 8.3 °F
Kosteus: Humidity % 74 % 87 %
Tuulen nopeus: WindSpeedKMH mph 0.0 mph 0.4 mph
Tuulenpuuska: WindSpeedGustKMH mph - -
Tuuli:- - SSW
Ilmanpaine: PressurehPa in 1012.1 in -
Sade: 1.3 in    
Historical Graphs
 
 
Taulukkotiedot Tou 18, 2017
Aika Lämpötila Kastepiste Ilmanpaine Tuuli Tuulen nopeus Tuulenpuuska Kosteus Sademäärä (tunneittain)
TemperatureC °F DewpointC °F PressurehPa in Calm     Humidity % HourlyPrecipMM in
00:00 7.2 °F 6.3 °F 1017.8 in Calm     94 % 0.0 in
00:15 7.2 °F 6.5 °F 1017.8 in Calm     95 % 0.0 in
00:30 7.2 °F 6.4 °F 1017.8 in Calm     95 % 0.0 in
01:00 7.1 °F 6.4 °F 1017.8 in Calm   3.2 mph 95 % 0.0 in
01:15 7.2 °F 6.4 °F 1017.8 in SSW 1.6 mph 8.0 mph 95 % 0.0 in
01:30 7.2 °F 6.6 °F 1017.8 in Calm   6.4 mph 96 % 0.0 in
01:45 7.2 °F 6.6 °F 1017.8 in Calm     96 % 0.0 in
02:00 7.1 °F 6.5 °F 1017.8 in Calm     96 % 0.0 in
02:15 7.0 °F 6.3 °F 1017.8 in Calm     95 % 0.0 in
02:30 6.9 °F 6.2 °F 1017.5 in Calm     95 % 0.0 in
02:45 6.9 °F 6.1 °F 1017.8 in Calm     95 % 0.0 in
03:00 6.8 °F 6.2 °F 1017.8 in Calm     96 % 0.0 in
03:15 6.8 °F 6.2 °F 1017.5 in Calm     96 % 0.0 in
03:30 6.7 °F 5.9 °F 1017.8 in Calm     95 % 0.0 in
03:45 6.4 °F 5.7 °F 1017.8 in Calm     95 % 0.0 in
04:00 6.3 °F 5.5 °F 1017.5 in Calm     95 % 0.0 in
04:15 6.2 °F 5.6 °F 1017.5 in Calm     96 % 0.0 in
04:30 6.2 °F 5.6 °F 1017.5 in Calm     96 % 0.0 in
04:45 6.3 °F 5.7 °F 1017.5 in Calm     96 % 0.0 in
05:00 6.3 °F 5.7 °F 1017.5 in Calm     96 % 0.0 in
05:15 6.4 °F 5.9 °F 1017.2 in Calm     96 % 0.0 in
05:30 6.4 °F 5.9 °F 1017.2 in Calm     96 % 0.0 in
05:45 6.5 °F 5.9 °F 1017.2 in Calm     96 % 0.0 in
06:00 6.7 °F 6.1 °F 1017.2 in Calm     96 % 0.0 in
06:15 6.8 °F 6.2 °F 1017.2 in Calm     96 % 0.0 in
06:30 7.1 °F 6.6 °F 1017.2 in Calm   4.8 mph 97 % 0.0 in
06:45 7.4 °F 6.8 °F 1017.2 in Calm   1.6 mph 96 % 0.0 in
07:00 7.7 °F 6.9 °F 1017.5 in Calm     95 % 0.0 in
07:15 7.9 °F 6.8 °F 1017.5 in Calm   3.2 mph 93 % 0.0 in
07:30 8.2 °F 6.9 °F 1017.2 in Calm     92 % 0.0 in
07:45 8.4 °F 6.9 °F 1017.2 in Calm     90 % 0.0 in
08:00 8.9 °F 7.2 °F 1017.2 in Calm     89 % 0.0 in
08:15 9.2 °F 6.9 °F 1017.2 in Calm   3.2 mph 86 % 0.0 in
08:30 9.3 °F 6.9 °F 1017.5 in Calm   4.8 mph 85 % 0.0 in
08:45 9.6 °F 7.2 °F 1017.5 in Calm   1.6 mph 85 % 0.0 in
09:00 9.8 °F 7.0 °F 1017.5 in Calm   1.6 mph 83 % 0.0 in
09:15 10.2 °F 7.4 °F 1017.2 in Calm   4.8 mph 83 % 0.0 in
09:30 10.4 °F 7.5 °F 1016.8 in South 1.6 mph 6.4 mph 82 % 0.0 in
09:45 10.6 °F 7.3 °F 1016.8 in SSW 3.2 mph 8.0 mph 80 % 0.0 in
10:00 10.8 °F 7.5 °F 1016.8 in South 1.6 mph 6.4 mph 80 % 0.0 in
10:15 11.2 °F 7.7 °F 1016.8 in Calm   4.8 mph 79 % 0.0 in
10:30 11.4 °F 7.7 °F 1016.8 in SSW 1.6 mph 6.4 mph 78 % 0.0 in
10:45 11.8 °F 8.1 °F 1016.8 in South 1.6 mph 8.0 mph 77 % 0.0 in
11:00 12.3 °F 8.6 °F 1016.8 in Calm   3.2 mph 78 % 0.0 in
11:15 12.7 °F 8.4 °F 1016.8 in Calm   6.4 mph 75 % 0.0 in
11:30 12.9 °F 8.6 °F 1016.8 in South 1.6 mph 6.4 mph 75 % 0.0 in
11:45 13.1 °F 8.6 °F 1016.8 in South 1.6 mph 8.0 mph 74 % 0.0 in
12:00 13.2 °F 8.8 °F 1016.8 in Calm   6.4 mph 75 % 0.0 in
12:15 13.2 °F 8.8 °F 1016.8 in SSW 4.8 mph 8.0 mph 75 % 0.0 in
12:30 13.3 °F 8.9 °F 1016.8 in South 1.6 mph 8.0 mph 75 % 0.0 in
12:45 13.5 °F 9.2 °F 1016.5 in South 1.6 mph 9.7 mph 75 % 0.0 in
13:00 13.4 °F 9.2 °F 1016.5 in SSW 4.8 mph 12.9 mph 76 % 0.0 in
13:15 13.6 °F 9.4 °F 1016.5 in SSW 1.6 mph 8.0 mph 76 % 0.0 in
13:30 13.4 °F 9.3 °F 1016.5 in South 3.2 mph 9.7 mph 76 % 0.0 in
13:45 13.4 °F 9.5 °F 1016.5 in SSW 1.6 mph 9.7 mph 77 % 0.0 in
14:00 13.6 °F 9.5 °F 1016.5 in Calm   9.7 mph 76 % 0.0 in
14:15 13.6 °F 9.4 °F 1016.5 in SSW 3.2 mph 9.7 mph 76 % 0.0 in
14:30 13.4 °F 9.5 °F 1016.1 in South 1.6 mph 6.4 mph 77 % 0.0 in
14:45 13.5 °F 9.5 °F 1016.5 in Calm   11.3 mph 77 % 0.0 in
15:00 13.6 °F 9.5 °F 1016.1 in South 1.6 mph 11.3 mph 76 % 0.0 in
15:15 13.7 °F 9.6 °F 1016.1 in Calm   4.8 mph 76 % 0.0 in
15:30 13.6 °F 9.7 °F 1016.1 in Calm     77 % 0.0 in
15:45 13.6 °F 9.7 °F 1016.1 in Calm     77 % 0.0 in
16:00 13.7 °F 9.9 °F 1015.8 in Calm     78 % 0.0 in
16:15 13.8 °F 9.7 °F 1015.8 in Calm     76 % 0.0 in
16:30 13.8 °F 9.7 °F 1015.8 in Calm     76 % 0.0 in
16:45 13.8 °F 9.8 °F 1015.8 in Calm     77 % 0.0 in
17:00 13.8 °F 9.9 °F 1015.8 in Calm     77 % 0.0 in
17:15 13.8 °F 10.0 °F 1015.8 in Calm     78 % 0.0 in
17:30 13.6 °F 10.2 °F 1015.5 in Calm     80 % 0.0 in
17:45 13.4 °F 10.6 °F 1015.5 in Calm     83 % 0.0 in
18:00 13.1 °F 10.3 °F 1015.1 in Calm     83 % 0.0 in
18:15 12.9 °F 10.5 °F 1015.1 in Calm     85 % 0.0 in
18:30 12.8 °F 10.5 °F 1015.5 in Calm     86 % 0.0 in
18:45 12.7 °F 10.9 °F 1015.1 in Calm     89 % 0.3 in
19:00 12.6 °F 11.0 °F 1015.1 in Calm     90 % 0.3 in
19:15 12.4 °F 11.2 °F 1014.8 in Calm     92 % 0.3 in
19:45 12.2 °F 11.1 °F 1014.4 in Calm     93 % 0.3 in
20:00 12.1 °F 11.0 °F 1014.1 in Calm     93 % 0.5 in
20:15 11.9 °F 11.0 °F 1014.1 in Calm     94 % 0.5 in
20:30 11.8 °F 10.9 °F 1013.8 in Calm     94 % 0.5 in
20:45 11.8 °F 10.8 °F 1013.8 in Calm     94 % 0.5 in
21:00 11.7 °F 10.9 °F 1013.4 in Calm     95 % 0.5 in
21:15 11.6 °F 10.8 °F 1013.4 in Calm     95 % 0.3 in
21:30 11.4 °F 10.7 °F 1013.1 in Calm     95 % 0.0 in
21:45 11.4 °F 10.6 °F 1013.1 in Calm     95 % 0.3 in
22:00 11.3 °F 10.6 °F 1013.1 in Calm     95 % 0.3 in
22:15 11.3 °F 10.6 °F 1012.8 in Calm     95 % 0.3 in
22:30 11.3 °F 10.6 °F 1012.8 in Calm     95 % 0.3 in
22:45 11.3 °F 10.5 °F 1012.8 in Calm     95 % 0.0 in
23:00 11.2 °F 10.5 °F 1012.4 in Calm     95 % 0.0 in
23:15 11.3 °F 10.5 °F 1012.4 in Calm     95 % 0.0 in
23:30 11.3 °F 10.5 °F 1012.4 in Calm     95 % 0.0 in
23:45 11.4 °F 10.6 °F 1012.1 in Calm     95 % 0.0 in
Esan sääasema
Terveisin Weather Underground - 2.75 mb

Alkuperäinen skripti  Jim McMurry - jmcmurry@mwt.net Sovitettu myös templatelle  Wim van der Kuil - Leuven-Template.eu

Laitteet joita käytämme:

Sääasema
Davis VP2

Sääasemaohjelma
Cumulus

Sääaseman tietokone
Asus EeePC

Palveluntarjoaja
Suncomet

Davis VP2

Cumulus

Asus EeePC

Suncomet